»·PEaware :: N7732J KBFL-KSBP

N7732J :: KBFL-KSBP

FLIGHT INFORMATION

Flight Status: Arrived
Operator: Privately registered:
United States
More flights under this callsign
Pilot: Scott G. (88)
Aircraft: BEECH AIRCRAFT BARON
(BE58)
More flights by this aircraft type
Origin: KBFL Meadows
United States
Destination: KSBP San Luis Co Regl
United States
More flights between these airports :: More routes between these airports
Route: +MEADO4 MQO
File this flight plan on PilotEdge
Remarks:
Altitude:
(Current/Filed)
10,000ft
Speed:
(Current/Filed)
180kts
Departed: 07-Jan-20 12:24 PM
Arrived: 07-Jan-20 12:58 PM
Distance/Time
Traveled:
79nm/0:34
Distance/Time
To Go:
Arrived

Flight Plot

Page will automatically refresh every two minutes.

Flight plan parsing failed; only flown route is shown


Map Options




Map Legend


Flown Route
Filed Route
Departure Airport
Arrival Airport
Navaid (VOR, NDB)
Fix

Horizontal Profiles

Position Reports

Time Latitude Longitude Heading Altitude Ground
Speed
07-Jan-20 11:57 35.435709 -119.053063 180 510ft 0kts
07-Jan-20 11:58 35.435709 -119.053063 180 510ft 0kts
07-Jan-20 11:59 35.435709 -119.053063 180 510ft 0kts
07-Jan-20 12:00 35.435709 -119.053063 180 510ft 0kts
07-Jan-20 12:01 35.435709 -119.053063 180 510ft 0kts
07-Jan-20 12:02 35.435709 -119.053063 180 510ft 0kts
07-Jan-20 12:03 35.435709 -119.053063 180 510ft 0kts
07-Jan-20 12:04 35.435709 -119.053063 180 510ft 0kts
07-Jan-20 12:05 35.435709 -119.053063 180 510ft 0kts
07-Jan-20 12:06 35.435709 -119.053063 180 510ft 0kts
07-Jan-20 12:07 35.435685 -119.053063 180 510ft 2kts
07-Jan-20 12:08 35.434764 -119.054426 228 510ft 0kts
07-Jan-20 12:09 35.434764 -119.054426 228 510ft 0kts
07-Jan-20 12:10 35.434764 -119.054426 228 510ft 0kts
07-Jan-20 12:11 35.434764 -119.054426 228 510ft 0kts
07-Jan-20 12:12 35.434764 -119.054426 228 510ft 0kts
07-Jan-20 12:13 35.434764 -119.054426 228 510ft 0kts
07-Jan-20 12:14 35.434404 -119.054559 155 510ft 10kts
07-Jan-20 12:15 35.430085 -119.049421 135 510ft 27kts
07-Jan-20 12:16 35.425895 -119.044606 193 510ft 7kts
07-Jan-20 12:17 35.425693 -119.044797 231 510ft 0kts
07-Jan-20 12:18 35.425693 -119.044797 231 510ft 0kts
07-Jan-20 12:19 35.425693 -119.044797 231 510ft 0kts
07-Jan-20 12:20 35.425693 -119.044797 231 510ft 0kts
07-Jan-20 12:21 35.425693 -119.044797 231 510ft 0kts
07-Jan-20 12:22 35.425605 -119.044931 231 510ft 7kts
07-Jan-20 12:23 35.435819 -119.058544 314 917ft 108kts
07-Jan-20 12:24 35.461253 -119.089444 315 2340ft 144kts
07-Jan-20 12:25 35.491702 -119.124496 316 3082ft 161kts
07-Jan-20 12:26 35.525272 -119.163900 316 3085ft 171kts
07-Jan-20 12:27 35.529255 -119.215604 251 3737ft 156kts
07-Jan-20 12:28 35.518523 -119.259423 259 4959ft 139kts
07-Jan-20 12:29 35.510144 -119.303750 260 6294ft 129kts
07-Jan-20 12:30 35.502667 -119.345906 260 7558ft 124kts
07-Jan-20 12:31 35.495434 -119.387135 259 8724ft 125kts
07-Jan-20 12:32 35.488211 -119.428393 258 9802ft 124kts
07-Jan-20 12:33 35.480013 -119.475263 258 10078ft 157kts
07-Jan-20 12:34 35.470459 -119.529701 258 10054ft 168kts
07-Jan-20 12:35 35.460513 -119.586480 258 10024ft 174kts
07-Jan-20 12:36 35.450384 -119.644094 258 10011ft 176kts
07-Jan-20 12:37 35.439909 -119.703635 257 10017ft 178kts
07-Jan-20 12:38 35.429392 -119.763358 258 10010ft 180kts
07-Jan-20 12:39 35.418837 -119.823263 257 9999ft 181kts
07-Jan-20 12:40 35.408089 -119.884133 257 9987ft 182kts
07-Jan-20 12:41 35.397116 -119.946321 257 9972ft 182kts
07-Jan-20 12:42 35.386126 -120.008431 257 9957ft 181kts
07-Jan-20 12:43 35.374934 -120.071907 257 9322ft 202kts
07-Jan-20 12:44 35.362578 -120.141697 257 7793ft 209kts
07-Jan-20 12:45 35.350688 -120.208839 257 6294ft 187kts
07-Jan-20 12:46 35.341179 -120.263960 258 5937ft 145kts
07-Jan-20 12:47 35.332497 -120.315613 258 6110ft 170kts
07-Jan-20 12:48 35.322330 -120.376278 258 5680ft 190kts
07-Jan-20 12:49 35.311077 -120.442794 258 4274ft 197kts
07-Jan-20 12:50 35.300554 -120.500238 256 5143ft 147kts
07-Jan-20 12:51 35.291000 -120.556835 258 5044ft 171kts
07-Jan-20 12:52 35.282018 -120.613608 254 4543ft 151kts
07-Jan-20 12:53 35.254780 -120.633596 200 4133ft 112kts
07-Jan-20 12:54 35.258360 -120.643544 45 2448ft 100kts
07-Jan-20 12:55 35.248048 -120.617915 139 1119ft 96kts
07-Jan-20 12:56 35.230779 -120.629281 291 539ft 88kts
07-Jan-20 12:57 35.237132 -120.650094 32 216ft 6kts
07-Jan-20 12:58 35.237383 -120.649684 73 216ft 9kts
07-Jan-20 12:59 35.238264 -120.647473 310 216ft 4kts
07-Jan-20 13:00 35.238046 -120.647740 175 216ft 0kts
07-Jan-20 13:01 35.238046 -120.647740 175 216ft 0kts

Navigation Log

Ident Type
Flight plan parsing failed, navigation log unavailable